2022年5月22日

时间 代码 天气 温度 能见度 乌云 METAR/SPECI
09:00
V
22 °C 10 km+ - 190°   190° 6 kt METAR LFBO 220700Z AUTO 19006KT 160V220 CAVOK 22/15 Q1013 NOSIG
08:30
V
21 °C 10 km+ - 170°   170° 5 kt METAR LFBO 220630Z AUTO 17005KT CAVOK 21/16 Q1013 NOSIG
08:00
I
20 °C 4,4 km - 170°   170° 3 kt METAR LFBO 220600Z AUTO 17003KT 120V210 9999 4400 NSC 20/16 Q1013 NOSIG
07:30
V
19 °C 10 km+ - 200°   200° 3 kt METAR LFBO 220530Z AUTO 20003KT 160V220 CAVOK 19/16 Q1013 NOSIG
07:00
V
19 °C 10 km+ - 130°   130° 5 kt METAR LFBO 220500Z AUTO 13005KT CAVOK 19/16 Q1012 NOSIG
06:30
V
19 °C 10 km+ - 170°   170° 5 kt METAR LFBO 220430Z AUTO 17005KT 120V190 9999 FEW007 19/16 Q1013 NOSIG
06:00
V
19 °C 10 km+ - 190°   190° 5 kt METAR LFBO 220400Z AUTO 19005KT 160V220 CAVOK 19/15 Q1013 NOSIG
05:30
V
19 °C 10 km+ - 180°   180° 4 kt METAR LFBO 220330Z AUTO 18004KT 140V230 CAVOK 19/16 Q1013 NOSIG
05:00
V
19 °C 10 km+ - 190°   190° 3 kt METAR LFBO 220300Z AUTO 19003KT CAVOK 19/16 Q1013 NOSIG
04:30
V
20 °C 10 km+ - 140°   140° 5 kt METAR LFBO 220230Z AUTO 14005KT CAVOK 20/16 Q1013 NOSIG
04:00
V
20 °C 10 km+ - 140°   140° 6 kt METAR LFBO 220200Z AUTO 14006KT 100V160 CAVOK 20/16 Q1013 NOSIG
03:30
V
21 °C 10 km+ - 130°   130° 9 kt METAR LFBO 220130Z AUTO 13009KT CAVOK 21/16 Q1013 NOSIG
03:00
V
21 °C 10 km+ - 140°   140° 8 kt METAR LFBO 220100Z AUTO 14008KT CAVOK 21/16 Q1013 NOSIG
02:30
V
21 °C 10 km+ - 130°   130° 10 kt METAR LFBO 220030Z AUTO 13010KT CAVOK 21/17 Q1013 NOSIG
02:00
V
22 °C 10 km+ - 140°   140° 9 kt METAR LFBO 220000Z AUTO 14009KT CAVOK 22/17 Q1014 NOSIG
01:30
V
22 °C 10 km+ - 150°   150° 8 kt METAR LFBO 212330Z AUTO 15008KT CAVOK 22/17 Q1014 NOSIG
01:00
V
22 °C 10 km+ - 140°   140° 9 kt METAR LFBO 212300Z AUTO 14009KT CAVOK 22/17 Q1014 NOSIG
00:30
V
22 °C 10 km+ - 150°   150° 7 kt METAR LFBO 212230Z AUTO 15007KT CAVOK 22/17 Q1015 NOSIG
00:00
V
23 °C 10 km+ - 150°   150° 10 kt METAR LFBO 212200Z AUTO 15010KT CAVOK 23/17 Q1015 NOSIG

2022年5月21日

时间 代码 天气 温度 能见度 乌云 METAR/SPECI
23:30
V
23 °C 10 km+ - 150°   150° 8 kt METAR LFBO 212130Z AUTO 15008KT CAVOK 23/17 Q1015 NOSIG
23:00
V
24 °C 10 km+ - 160°   160° 7 kt METAR LFBO 212100Z AUTO 16007KT CAVOK 24/17 Q1015 NOSIG
22:30
V
24 °C 10 km+ - 160°   160° 8 kt METAR LFBO 212030Z AUTO 16008KT 9999 FEW009 24/17 Q1015 NOSIG
22:00
V
25 °C 10 km+ - 150°   150° 6 kt METAR LFBO 212000Z AUTO 15006KT CAVOK 25/16 Q1015 NOSIG
21:30
V
26 °C 10 km+ - 150°   150° 6 kt METAR LFBO 211930Z AUTO 15006KT CAVOK 26/16 Q1015 NOSIG
21:00
V
27 °C 10 km+ - 150°   150° 10 kt METAR LFBO 211900Z AUTO 15010KT CAVOK 27/16 Q1015 NOSIG
20:30
V
27 °C 10 km+ - 160°   160° 9 kt METAR LFBO 211830Z AUTO 16009KT 9999 FEW008 SCT180 27/16 Q1015 NOSIG
20:00
V
28 °C 10 km+ - 150°   150° 9 kt METAR LFBO 211800Z AUTO 15009KT CAVOK 28/16 Q1015 NOSIG
19:30
V
29 °C 10 km+ - 150°   150° 10 kt METAR LFBO 211730Z AUTO 15010KT 9999 FEW008 29/16 Q1015 NOSIG
19:00
V
30 °C 10 km+ - 150°   150° 11 kt METAR LFBO 211700Z AUTO 15011KT CAVOK 30/16 Q1015 NOSIG
18:30
V
31 °C 10 km+ - 150°   150° 11 kt METAR LFBO 211630Z AUTO 15011KT CAVOK 31/17 Q1015 NOSIG
18:00
V
32 °C 10 km+ - 150°   150° 10 kt METAR LFBO 211600Z AUTO 15010KT CAVOK 32/16 Q1015 NOSIG
17:30
V
32 °C 10 km+ - 140°   140° 11 kt METAR LFBO 211530Z AUTO 14011KT CAVOK 32/16 Q1016 NOSIG
17:00
V
32 °C 10 km+ - 130°   130° 9 kt METAR LFBO 211500Z AUTO 13009KT 090V180 CAVOK 32/16 Q1016 NOSIG
16:30
V
31 °C 10 km+ - 130°   130° 8 kt METAR LFBO 211430Z AUTO 13008KT 100V170 CAVOK 31/15 Q1016 NOSIG
16:00
V
32 °C 10 km+ - 120°   120° 10 kt METAR LFBO 211400Z AUTO 12010KT 090V170 CAVOK 32/16 Q1016 NOSIG
15:30
V
31 °C 10 km+ - 120°   120° 11 kt METAR LFBO 211330Z AUTO 12011KT CAVOK 31/15 Q1017 NOSIG
15:00
V
31 °C 10 km+ - 130°   130° 11 kt METAR LFBO 211300Z AUTO 13011KT 9999 FEW009 31/16 Q1017 NOSIG
14:30
V
31 °C 10 km+ - 120°   120° 9 kt METAR LFBO 211230Z AUTO 12009KT 090V170 CAVOK 31/16 Q1017 NOSIG
14:00
V
30 °C 10 km+ - 140°   140° 8 kt METAR LFBO 211200Z AUTO 14008KT 100V190 9999 FEW009 30/16 Q1018 NOSIG
13:30
V
30 °C 10 km+ - 140°   140° 8 kt METAR LFBO 211130Z AUTO 14008KT 060V180 CAVOK 30/17 Q1018 NOSIG
13:00
V
29 °C 10 km+ - 150°   150° 11 kt METAR LFBO 211100Z AUTO 15011KT 120V180 CAVOK 29/16 Q1018 NOSIG
12:30
V
28 °C 10 km+ - 120°   120° 9 kt METAR LFBO 211030Z AUTO 12009KT CAVOK 28/16 Q1018 NOSIG
12:00
V
27 °C 10 km+ - 100°   100° 6 kt METAR LFBO 211000Z AUTO 10006KT 070V140 CAVOK 27/16 Q1019 NOSIG
11:30
V
26 °C 10 km+ - 080°   080° 4 kt METAR LFBO 210930Z AUTO 08004KT 040V180 CAVOK 26/16 Q1019 NOSIG
11:00
V
0 °C 10 km+ - Var   000° 0 kt METAR LFBO 210900Z AUTO /////KT CAVOK ///// Q1019
10:30
V
24 °C 10 km+ - 110°   110° 6 kt METAR LFBO 210830Z AUTO 11006KT 070V160 9999 FEW008 24/16 Q1019 NOSIG
10:00
V
23 °C 10 km+ - 120°   120° 7 kt METAR LFBO 210800Z AUTO 12007KT 090V150 CAVOK 23/16 Q1020 NOSIG
09:30
V
22 °C 10 km+ - 110°   110° 7 kt METAR LFBO 210730Z AUTO 11007KT 080V140 9999 FEW009 22/16 Q1020 NOSIG
09:00
V
21 °C 10 km+ - 120°   120° 7 kt METAR LFBO 210700Z AUTO 12007KT CAVOK 21/16 Q1020 NOSIG
08:30
V
0 °C 10 km+ - Var   000° 0 kt METAR LFBO 210630Z AUTO /////KT CAVOK ///// Q1020
08:00
V
0 °C 10 km+ - Var   000° 0 kt METAR LFBO 210600Z AUTO /////KT 9999 FEW008 ///// Q1021
07:30
V
0 °C 10 km+ - Var   000° 0 kt METAR LFBO 210530Z AUTO /////KT CAVOK ///// Q1021
07:00
V
0 °C 10 km+ - Var   000° 0 kt METAR LFBO 210500Z AUTO /////KT CAVOK ///// Q1021
06:30
V
0 °C 10 km+ - Var   000° 0 kt METAR LFBO 210430Z AUTO /////KT 9999 FEW009 ///// Q1021
06:00
V
0 °C 10 km+ - Var   000° 0 kt METAR LFBO 210400Z AUTO /////KT CAVOK ///// Q1021
05:30
V
0 °C 10 km+ - Var   000° 0 kt METAR LFBO 210330Z AUTO /////KT CAVOK ///// Q1021
05:00
V
0 °C 10 km+ - Var   000° 0 kt METAR LFBO 210300Z AUTO /////KT CAVOK ///// Q1022
04:30
V
0 °C 10 km+ - Var   000° 0 kt METAR LFBO 210230Z AUTO /////KT CAVOK ///// Q1022
04:00
V
0 °C 10 km+ - Var   000° 0 kt METAR LFBO 210200Z AUTO /////KT CAVOK ///// Q1022
03:30
V
0 °C 10 km+ - Var   000° 0 kt METAR LFBO 210130Z AUTO /////KT CAVOK ///// Q1022
03:00
V
0 °C 10 km+ - Var   000° 0 kt METAR LFBO 210100Z AUTO /////KT CAVOK ///// Q1023
02:30
V
0 °C 10 km+ - Var   000° 0 kt METAR LFBO 210030Z AUTO /////KT CAVOK ///// Q1023
02:00
V
0 °C 10 km+ - Var   000° 0 kt METAR LFBO 210000Z AUTO /////KT CAVOK ///// Q1023
01:30
V
0 °C 10 km+ - Var   000° 0 kt METAR LFBO 202330Z AUTO /////KT CAVOK ///// Q1023
01:00
V
0 °C 10 km+ - Var   000° 0 kt METAR LFBO 202300Z AUTO /////KT CAVOK ///// Q1023
00:30
V
0 °C 10 km+ - Var   000° 0 kt METAR LFBO 202230Z AUTO /////KT CAVOK ///// Q1024
00:00
V
0 °C 10 km+ - Var   000° 0 kt METAR LFBO 202200Z AUTO /////KT CAVOK ///// Q1023

2022年5月20日

时间 代码 天气 温度 能见度 乌云 METAR/SPECI
23:30
V
0 °C 10 km+ - Var   000° 0 kt METAR LFBO 202130Z AUTO /////KT CAVOK ///// Q1023
23:00
V
0 °C 10 km+ - Var   000° 0 kt METAR LFBO 202100Z AUTO /////KT CAVOK ///// Q1023
22:30
V
0 °C 10 km+ - Var   000° 0 kt METAR LFBO 202030Z AUTO /////KT CAVOK ///// Q1023
22:00
V
0 °C 10 km+ - Var   000° 0 kt METAR LFBO 202000Z AUTO /////KT CAVOK ///// Q1023
21:30
V
26 °C 10 km+ - 310°   310° 7 kt METAR LFBO 201930Z AUTO 31007KT CAVOK 26/18 Q1022 NOSIG
21:00
V
26 °C 10 km+ - 290°   290° 7 kt METAR LFBO 201900Z AUTO 29007KT CAVOK 26/18 Q1022 NOSIG
20:30
V
28 °C 10 km+ - 320°   320° 8 kt METAR LFBO 201830Z AUTO 32008KT CAVOK 28/17 Q1022 NOSIG
20:00
V
29 °C 10 km+ - 310°   310° 5 kt METAR LFBO 201800Z AUTO 31005KT CAVOK 29/16 Q1022 NOSIG
19:30
V
29 °C 10 km+ - 320°   320° 5 kt METAR LFBO 201730Z AUTO 32005KT 260V020 CAVOK 29/16 Q1022 NOSIG
19:00
V
29 °C 10 km+ - 300°   300° 6 kt METAR LFBO 201700Z AUTO 30006KT 260V320 CAVOK 29/17 Q1022 NOSIG
18:30
V
30 °C 10 km+ - 290°   290° 6 kt METAR LFBO 201630Z AUTO 29006KT 270V330 CAVOK 30/16 Q1022 NOSIG
18:00
V
30 °C 10 km+ - 140°   140° 3 kt METAR LFBO 201600Z AUTO 14003KT 110V210 CAVOK 30/16 Q1022 NOSIG
17:30
V
30 °C 10 km+ - Var   Var 3 kt METAR LFBO 201530Z AUTO VRB03KT CAVOK 30/15 Q1022 NOSIG
17:00
I
30 °C 2,6 km - 250°   250° 4 kt METAR LFBO 201500Z AUTO 25004KT 150V320 9999 2600 FEW007 30/16 Q1022 NOSIG
16:30
V
30 °C 10 km+ - 250°   250° 4 kt METAR LFBO 201430Z AUTO 25004KT 190V320 CAVOK 30/16 Q1022 NOSIG
16:00
V
30 °C 10 km+ - Var   Var 5 kt METAR LFBO 201400Z AUTO VRB05KT 9999 FEW008 30/17 Q1022 NOSIG
15:30
V
30 °C 10 km+ - 200°   200° 6 kt METAR LFBO 201330Z AUTO 20006KT 140V260 9999 FEW007 SCT190 30/16 Q1022 NOSIG
15:00
V
29 °C 10 km+ - 200°   200° 6 kt METAR LFBO 201300Z AUTO 20006KT 160V240 CAVOK 29/16 Q1022 NOSIG
14:30
V
29 °C 10 km+ - 140°   140° 9 kt METAR LFBO 201230Z AUTO 14009KT 120V180 CAVOK 29/16 Q1022 NOSIG
14:00
V
28 °C 9 km - 140°   140° 11 kt METAR LFBO 201200Z AUTO 14011KT 110V180 9000 FEW007 SCT190 28/16 Q1022 NOSIG
13:30
V
28 °C 8 km - 160°   160° 11 kt METAR LFBO 201130Z AUTO 16011KT 110V190 8000 FEW009 28/16 Q1022 NOSIG
13:00
V
27 °C 8 km - 130°   130° 14 kt METAR LFBO 201100Z AUTO 13014KT 110V170 8000 NSC 27/16 Q1021 NOSIG
12:30
V
27 °C 8 km - 130°   130° 17 kt METAR LFBO 201030Z AUTO 13017KT 100V170 8000 NSC 27/16 Q1021 BECMG 17006KT
12:00
V
26 °C 8 km - 120°   120° 15 kt METAR LFBO 201000Z AUTO 12015KT 8000 NSC 26/16 Q1021 NOSIG
11:30
V
26 °C 8 km - 150°   150° 16 kt METAR LFBO 200930Z AUTO 15016KT 8000 NSC 26/16 Q1020 BECMG 17006KT
11:00
V
24 °C 9 km - 140°   140° 19 kt METAR LFBO 200900Z AUTO 14019KT 9000 NSC 24/16 Q1020 BECMG 17006KT
10:30
V
24 °C 9 km - 140°   140° 19 kt METAR LFBO 200830Z AUTO 14019KT 110V170 9000 NSC 24/16 Q1020 BECMG 17006KT
10:00
V
23 °C 10 km+ - 140°   140° 18 29 kt METAR LFBO 200800Z AUTO 14018G29KT CAVOK 23/15 Q1020 BECMG 14014KT
09:30
V
22 °C 10 km+ - 150°   150° 19 kt METAR LFBO 200730Z AUTO 15019KT 9999 FEW010 22/15 Q1020 TEMPO 14017G28KT
09:00
V
21 °C 10 km+ - 150°   150° 16 26 kt METAR LFBO 200700Z AUTO 15016G26KT CAVOK 21/15 Q1020 NOSIG
较旧的数据

下载我们的应用程序

在您的手机和平板电脑上轻松访问所有航空天气。
有许多网站上没有的功能,如离线支持和个人机场列表。

Studio Eveline

Benalmádena
España

我们和第三方通过cookies跟踪您在我们网站上的上网行为。如果您继续,我们认为您同意我们的cookie政策。 了解更多